sensor_id;sensor_type;location;lat;lon;timestamp;temperature;humidity
54178;DHT22;40085;53.004;6.770;2023-12-28T00:00:16;8.80;99.90
54178;DHT22;40085;53.004;6.770;2023-12-28T00:02:42;8.80;99.90
54178;DHT22;40085;53.004;6.770;2023-12-28T00:05:08;9.00;99.90
54178;DHT22;40085;53.004;6.770;2023-12-28T00:07:34;9.10;99.90
54178;DHT22;40085;53.004;6.770;2023-12-28T00:09:59;9.00;99.90
54178;DHT22;40085;53.004;6.770;2023-12-28T00:12:25;9.10;99.90
54178;DHT22;40085;53.004;6.770;2023-12-28T00:14:51;9.00;99.90
54178;DHT22;40085;53.004;6.770;2023-12-28T00:17:16;9.00;99.90
54178;DHT22;40085;53.004;6.770;2023-12-28T00:19:42;9.10;99.90
54178;DHT22;40085;53.004;6.770;2023-12-28T00:22:08;9.10;99.90
54178;DHT22;40085;53.004;6.770;2023-12-28T00:24:33;9.10;99.90
54178;DHT22;40085;53.004;6.770;2023-12-28T00:26:59;9.10;99.90
54178;DHT22;40085;53.004;6.770;2023-12-28T00:29:24;9.20;99.90
54178;DHT22;40085;53.004;6.770;2023-12-28T00:31:50;9.10;99.90
54178;DHT22;40085;53.004;6.770;2023-12-28T00:34:16;9.10;99.90
54178;DHT22;40085;53.004;6.770;2023-12-28T00:36:42;9.10;99.90
54178;DHT22;40085;53.004;6.770;2023-12-28T00:39:07;9.10;99.90
54178;DHT22;40085;53.004;6.770;2023-12-28T00:41:33;9.10;99.90
54178;DHT22;40085;53.004;6.770;2023-12-28T00:43:59;9.10;99.90
54178;DHT22;40085;53.004;6.770;2023-12-28T00:46:26;9.10;99.90
54178;DHT22;40085;53.004;6.770;2023-12-28T00:48:51;9.10;99.90
54178;DHT22;40085;53.004;6.770;2023-12-28T00:51:17;9.20;99.90
54178;DHT22;40085;53.004;6.770;2023-12-28T00:53:42;9.20;99.90
54178;DHT22;40085;53.004;6.770;2023-12-28T00:56:09;9.30;99.90
54178;DHT22;40085;53.004;6.770;2023-12-28T00:58:41;9.60;99.90
54178;DHT22;40085;53.004;6.770;2023-12-28T01:01:09;9.30;99.90
54178;DHT22;40085;53.004;6.770;2023-12-28T01:03:35;9.30;99.90
54178;DHT22;40085;53.004;6.770;2023-12-28T01:06:00;9.30;99.90
54178;DHT22;40085;53.004;6.770;2023-12-28T01:08:27;9.50;99.90
54178;DHT22;40085;53.004;6.770;2023-12-28T01:10:53;9.20;99.90
54178;DHT22;40085;53.004;6.770;2023-12-28T01:13:18;9.30;99.90
54178;DHT22;40085;53.004;6.770;2023-12-28T01:15:44;9.30;99.90
54178;DHT22;40085;53.004;6.770;2023-12-28T01:18:09;9.30;99.90
54178;DHT22;40085;53.004;6.770;2023-12-28T01:20:35;9.30;99.90
54178;DHT22;40085;53.004;6.770;2023-12-28T01:23:01;9.30;99.90
54178;DHT22;40085;53.004;6.770;2023-12-28T01:25:27;9.40;99.90
54178;DHT22;40085;53.004;6.770;2023-12-28T01:27:53;9.40;99.90
54178;DHT22;40085;53.004;6.770;2023-12-28T01:30:18;9.30;99.90
54178;DHT22;40085;53.004;6.770;2023-12-28T01:32:44;9.30;99.90
54178;DHT22;40085;53.004;6.770;2023-12-28T01:35:10;9.30;99.90
54178;DHT22;40085;53.004;6.770;2023-12-28T01:37:35;9.30;99.90
54178;DHT22;40085;53.004;6.770;2023-12-28T01:40:01;9.20;99.90
54178;DHT22;40085;53.004;6.770;2023-12-28T01:42:28;9.20;99.90
54178;DHT22;40085;53.004;6.770;2023-12-28T01:44:56;9.20;99.90
54178;DHT22;40085;53.004;6.770;2023-12-28T01:47:24;9.20;99.90
54178;DHT22;40085;53.004;6.770;2023-12-28T01:49:50;9.20;99.90
54178;DHT22;40085;53.004;6.770;2023-12-28T01:52:16;9.20;99.90
54178;DHT22;40085;53.004;6.770;2023-12-28T01:54:41;9.10;99.90
54178;DHT22;40085;53.004;6.770;2023-12-28T01:57:08;9.20;99.90
54178;DHT22;40085;53.004;6.770;2023-12-28T01:59:34;9.20;99.90
54178;DHT22;40085;53.004;6.770;2023-12-28T02:01:59;9.10;99.90
54178;DHT22;40085;53.004;6.770;2023-12-28T02:04:25;9.30;99.90
54178;DHT22;40085;53.004;6.770;2023-12-28T02:06:56;9.10;99.90
54178;DHT22;40085;53.004;6.770;2023-12-28T02:09:22;9.10;99.90
54178;DHT22;40085;53.004;6.770;2023-12-28T02:11:48;9.10;99.90
54178;DHT22;40085;53.004;6.770;2023-12-28T02:14:14;9.10;99.90
54178;DHT22;40085;53.004;6.770;2023-12-28T02:16:46;9.10;99.90
54178;DHT22;40085;53.004;6.770;2023-12-28T02:19:50;9.10;99.90
54178;DHT22;40085;53.004;6.770;2023-12-28T02:22:16;9.10;99.90
54178;DHT22;40085;53.004;6.770;2023-12-28T02:25:04;9.10;99.90
54178;DHT22;40085;53.004;6.770;2023-12-28T02:27:31;9.10;99.90
54178;DHT22;40085;53.004;6.770;2023-12-28T02:29:57;9.20;99.90
54178;DHT22;40085;53.004;6.770;2023-12-28T02:32:32;9.20;99.90
54178;DHT22;40085;53.004;6.770;2023-12-28T02:35:06;9.20;99.90
54178;DHT22;40085;53.004;6.770;2023-12-28T02:37:34;9.20;99.90
54178;DHT22;40085;53.004;6.770;2023-12-28T02:40:00;9.20;99.90
54178;DHT22;40085;53.004;6.770;2023-12-28T02:42:27;9.10;99.90
54178;DHT22;40085;53.004;6.770;2023-12-28T02:44:52;9.20;99.90
54178;DHT22;40085;53.004;6.770;2023-12-28T02:47:18;9.30;99.90
54178;DHT22;40085;53.004;6.770;2023-12-28T02:49:44;9.40;99.90
54178;DHT22;40085;53.004;6.770;2023-12-28T02:52:09;9.40;99.90
54178;DHT22;40085;53.004;6.770;2023-12-28T02:54:35;9.40;99.90
54178;DHT22;40085;53.004;6.770;2023-12-28T02:57:00;9.50;99.90
54178;DHT22;40085;53.004;6.770;2023-12-28T02:59:26;9.50;99.90
54178;DHT22;40085;53.004;6.770;2023-12-28T03:01:52;9.50;99.90
54178;DHT22;40085;53.004;6.770;2023-12-28T03:04:17;9.60;99.90
54178;DHT22;40085;53.004;6.770;2023-12-28T03:06:46;9.70;99.90
54178;DHT22;40085;53.004;6.770;2023-12-28T03:09:12;9.70;99.90
54178;DHT22;40085;53.004;6.770;2023-12-28T03:11:37;9.60;99.90
54178;DHT22;40085;53.004;6.770;2023-12-28T03:14:03;9.60;99.90
54178;DHT22;40085;53.004;6.770;2023-12-28T03:16:28;9.60;99.90
54178;DHT22;40085;53.004;6.770;2023-12-28T03:18:54;9.60;99.90
54178;DHT22;40085;53.004;6.770;2023-12-28T03:21:20;9.60;99.90
54178;DHT22;40085;53.004;6.770;2023-12-28T03:23:45;9.90;99.90
54178;DHT22;40085;53.004;6.770;2023-12-28T03:26:11;9.60;99.90
54178;DHT22;40085;53.004;6.770;2023-12-28T03:28:36;10.00;99.90
54178;DHT22;40085;53.004;6.770;2023-12-28T03:31:02;9.90;99.90
54178;DHT22;40085;53.004;6.770;2023-12-28T03:33:28;9.60;99.90
54178;DHT22;40085;53.004;6.770;2023-12-28T03:35:54;9.60;99.90
54178;DHT22;40085;53.004;6.770;2023-12-28T03:38:19;9.60;99.90
54178;DHT22;40085;53.004;6.770;2023-12-28T03:40:45;9.60;99.90
54178;DHT22;40085;53.004;6.770;2023-12-28T03:43:13;9.60;99.90
54178;DHT22;40085;53.004;6.770;2023-12-28T03:45:38;9.60;99.90
54178;DHT22;40085;53.004;6.770;2023-12-28T03:48:04;9.70;99.90
54178;DHT22;40085;53.004;6.770;2023-12-28T03:50:30;9.70;99.90
54178;DHT22;40085;53.004;6.770;2023-12-28T03:52:56;9.70;99.90
54178;DHT22;40085;53.004;6.770;2023-12-28T03:55:21;9.80;99.90
54178;DHT22;40085;53.004;6.770;2023-12-28T03:57:47;9.70;99.90
54178;DHT22;40085;53.004;6.770;2023-12-28T04:00:13;10.00;99.90
54178;DHT22;40085;53.004;6.770;2023-12-28T04:02:40;10.00;99.90
54178;DHT22;40085;53.004;6.770;2023-12-28T04:05:06;9.90;99.90
54178;DHT22;40085;53.004;6.770;2023-12-28T04:07:32;10.00;99.90
54178;DHT22;40085;53.004;6.770;2023-12-28T04:09:58;10.00;99.90
54178;DHT22;40085;53.004;6.770;2023-12-28T04:12:24;9.90;99.90
54178;DHT22;40085;53.004;6.770;2023-12-28T04:14:49;9.80;99.90
54178;DHT22;40085;53.004;6.770;2023-12-28T04:17:15;10.00;99.90
54178;DHT22;40085;53.004;6.770;2023-12-28T04:19:41;10.00;99.90
54178;DHT22;40085;53.004;6.770;2023-12-28T04:22:06;10.10;99.90
54178;DHT22;40085;53.004;6.770;2023-12-28T04:24:32;10.10;99.90
54178;DHT22;40085;53.004;6.770;2023-12-28T04:26:58;10.10;99.90
54178;DHT22;40085;53.004;6.770;2023-12-28T04:34:16;10.20;99.90
54178;DHT22;40085;53.004;6.770;2023-12-28T04:36:42;10.30;99.90
54178;DHT22;40085;53.004;6.770;2023-12-28T04:39:12;10.30;99.90
54178;DHT22;40085;53.004;6.770;2023-12-28T04:41:38;10.30;99.90
54178;DHT22;40085;53.004;6.770;2023-12-28T04:44:03;10.20;99.90
54178;DHT22;40085;53.004;6.770;2023-12-28T04:46:29;10.30;99.90
54178;DHT22;40085;53.004;6.770;2023-12-28T04:48:54;10.20;99.90
54178;DHT22;40085;53.004;6.770;2023-12-28T04:51:20;10.30;99.90
54178;DHT22;40085;53.004;6.770;2023-12-28T04:53:46;10.30;99.90
54178;DHT22;40085;53.004;6.770;2023-12-28T04:56:11;10.30;99.90
54178;DHT22;40085;53.004;6.770;2023-12-28T04:58:37;10.30;99.90
54178;DHT22;40085;53.004;6.770;2023-12-28T05:01:03;10.40;99.90
54178;DHT22;40085;53.004;6.770;2023-12-28T05:03:28;10.40;99.90
54178;DHT22;40085;53.004;6.770;2023-12-28T05:05:54;10.40;99.90
54178;DHT22;40085;53.004;6.770;2023-12-28T05:08:19;10.40;99.90
54178;DHT22;40085;53.004;6.770;2023-12-28T05:10:45;10.40;99.90
54178;DHT22;40085;53.004;6.770;2023-12-28T05:13:11;10.40;99.90
54178;DHT22;40085;53.004;6.770;2023-12-28T05:15:36;10.40;99.90
54178;DHT22;40085;53.004;6.770;2023-12-28T05:18:02;10.50;99.90
54178;DHT22;40085;53.004;6.770;2023-12-28T05:20:29;10.50;99.90
54178;DHT22;40085;53.004;6.770;2023-12-28T05:22:55;10.60;99.90
54178;DHT22;40085;53.004;6.770;2023-12-28T05:25:20;10.60;99.90
54178;DHT22;40085;53.004;6.770;2023-12-28T05:27:46;10.60;99.90
54178;DHT22;40085;53.004;6.770;2023-12-28T05:30:12;10.50;99.90
54178;DHT22;40085;53.004;6.770;2023-12-28T05:32:37;10.60;99.90
54178;DHT22;40085;53.004;6.770;2023-12-28T05:35:03;10.60;99.90
54178;DHT22;40085;53.004;6.770;2023-12-28T05:37:29;10.60;99.90
54178;DHT22;40085;53.004;6.770;2023-12-28T05:39:55;10.60;99.90
54178;DHT22;40085;53.004;6.770;2023-12-28T05:42:21;10.60;99.90
54178;DHT22;40085;53.004;6.770;2023-12-28T05:44:46;10.60;99.90
54178;DHT22;40085;53.004;6.770;2023-12-28T05:47:12;10.60;99.90
54178;DHT22;40085;53.004;6.770;2023-12-28T05:49:38;10.60;99.90
54178;DHT22;40085;53.004;6.770;2023-12-28T05:52:03;10.60;99.90
54178;DHT22;40085;53.004;6.770;2023-12-28T05:54:29;10.60;99.90
54178;DHT22;40085;53.004;6.770;2023-12-28T05:56:55;10.70;99.90
54178;DHT22;40085;53.004;6.770;2023-12-28T05:59:21;10.70;99.90
54178;DHT22;40085;53.004;6.770;2023-12-28T06:01:47;10.70;99.90
54178;DHT22;40085;53.004;6.770;2023-12-28T06:04:13;10.70;99.90
54178;DHT22;40085;53.004;6.770;2023-12-28T06:06:39;10.70;99.90
54178;DHT22;40085;53.004;6.770;2023-12-28T06:09:05;10.70;99.90
54178;DHT22;40085;53.004;6.770;2023-12-28T06:11:30;10.80;99.90
54178;DHT22;40085;53.004;6.770;2023-12-28T06:13:56;10.80;99.90
54178;DHT22;40085;53.004;6.770;2023-12-28T06:16:22;10.80;99.90
54178;DHT22;40085;53.004;6.770;2023-12-28T06:18:48;10.80;99.90
54178;DHT22;40085;53.004;6.770;2023-12-28T06:21:14;10.80;99.90
54178;DHT22;40085;53.004;6.770;2023-12-28T06:23:40;10.90;99.90
54178;DHT22;40085;53.004;6.770;2023-12-28T06:26:06;10.80;99.90
54178;DHT22;40085;53.004;6.770;2023-12-28T06:28:34;10.80;99.90
54178;DHT22;40085;53.004;6.770;2023-12-28T06:31:00;10.80;99.90
54178;DHT22;40085;53.004;6.770;2023-12-28T06:33:29;10.80;99.90
54178;DHT22;40085;53.004;6.770;2023-12-28T06:35:54;10.80;99.90
54178;DHT22;40085;53.004;6.770;2023-12-28T06:38:20;10.80;99.90
54178;DHT22;40085;53.004;6.770;2023-12-28T06:40:46;10.80;99.90
54178;DHT22;40085;53.004;6.770;2023-12-28T06:43:12;10.70;99.90
54178;DHT22;40085;53.004;6.770;2023-12-28T06:45:37;10.80;99.90
54178;DHT22;40085;53.004;6.770;2023-12-28T06:48:04;10.80;99.90
54178;DHT22;40085;53.004;6.770;2023-12-28T06:50:30;10.80;99.90
54178;DHT22;40085;53.004;6.770;2023-12-28T06:52:55;10.80;99.90
54178;DHT22;40085;53.004;6.770;2023-12-28T06:55:21;10.80;99.90
54178;DHT22;40085;53.004;6.770;2023-12-28T06:57:47;10.90;99.90
54178;DHT22;40085;53.004;6.770;2023-12-28T07:00:13;10.80;99.90
54178;DHT22;40085;53.004;6.770;2023-12-28T07:02:38;10.70;99.90
54178;DHT22;40085;53.004;6.770;2023-12-28T07:05:04;10.80;99.90
54178;DHT22;40085;53.004;6.770;2023-12-28T07:07:30;10.80;99.90
54178;DHT22;40085;53.004;6.770;2023-12-28T07:09:56;10.80;99.90
54178;DHT22;40085;53.004;6.770;2023-12-28T07:12:23;10.80;99.90
54178;DHT22;40085;53.004;6.770;2023-12-28T07:14:49;10.80;99.90
54178;DHT22;40085;53.004;6.770;2023-12-28T07:17:15;10.80;99.90
54178;DHT22;40085;53.004;6.770;2023-12-28T07:19:43;11.10;99.90
54178;DHT22;40085;53.004;6.770;2023-12-28T07:22:08;10.80;99.90
54178;DHT22;40085;53.004;6.770;2023-12-28T07:24:34;10.80;99.90
54178;DHT22;40085;53.004;6.770;2023-12-28T07:27:00;10.80;99.90
54178;DHT22;40085;53.004;6.770;2023-12-28T07:29:25;10.90;99.90
54178;DHT22;40085;53.004;6.770;2023-12-28T07:31:51;10.90;99.90
54178;DHT22;40085;53.004;6.770;2023-12-28T07:34:17;10.90;99.90
54178;DHT22;40085;53.004;6.770;2023-12-28T07:36:43;10.90;99.90
54178;DHT22;40085;53.004;6.770;2023-12-28T07:39:09;10.90;99.90
54178;DHT22;40085;53.004;6.770;2023-12-28T07:41:36;10.80;99.90
54178;DHT22;40085;53.004;6.770;2023-12-28T07:44:01;10.70;99.90
54178;DHT22;40085;53.004;6.770;2023-12-28T07:46:27;10.70;99.90
54178;DHT22;40085;53.004;6.770;2023-12-28T07:48:52;10.70;99.90
54178;DHT22;40085;53.004;6.770;2023-12-28T07:51:18;10.70;99.90
54178;DHT22;40085;53.004;6.770;2023-12-28T07:53:44;10.70;99.90
54178;DHT22;40085;53.004;6.770;2023-12-28T07:56:09;10.70;99.90
54178;DHT22;40085;53.004;6.770;2023-12-28T07:58:35;10.70;99.90
54178;DHT22;40085;53.004;6.770;2023-12-28T08:01:03;10.70;99.90
54178;DHT22;40085;53.004;6.770;2023-12-28T08:03:28;10.70;99.90
54178;DHT22;40085;53.004;6.770;2023-12-28T08:05:54;10.70;99.90
54178;DHT22;40085;53.004;6.770;2023-12-28T08:08:20;10.70;99.90
54178;DHT22;40085;53.004;6.770;2023-12-28T08:10:46;10.70;99.90
54178;DHT22;40085;53.004;6.770;2023-12-28T08:13:11;10.70;99.90
54178;DHT22;40085;53.004;6.770;2023-12-28T08:15:37;10.70;99.90
54178;DHT22;40085;53.004;6.770;2023-12-28T08:18:03;10.70;99.90
54178;DHT22;40085;53.004;6.770;2023-12-28T08:20:29;10.70;99.90
54178;DHT22;40085;53.004;6.770;2023-12-28T08:22:55;10.70;99.90
54178;DHT22;40085;53.004;6.770;2023-12-28T08:25:20;10.70;99.90
54178;DHT22;40085;53.004;6.770;2023-12-28T08:27:48;10.70;99.90
54178;DHT22;40085;53.004;6.770;2023-12-28T08:30:14;10.80;99.90
54178;DHT22;40085;53.004;6.770;2023-12-28T08:32:39;10.80;99.90
54178;DHT22;40085;53.004;6.770;2023-12-28T08:35:05;10.80;99.90
54178;DHT22;40085;53.004;6.770;2023-12-28T08:37:32;10.80;99.90
54178;DHT22;40085;53.004;6.770;2023-12-28T08:39:58;10.80;99.90
54178;DHT22;40085;53.004;6.770;2023-12-28T08:42:24;10.80;99.90
54178;DHT22;40085;53.004;6.770;2023-12-28T08:44:50;10.80;99.90
54178;DHT22;40085;53.004;6.770;2023-12-28T08:47:16;11.00;99.90
54178;DHT22;40085;53.004;6.770;2023-12-28T08:49:41;10.80;99.90
54178;DHT22;40085;53.004;6.770;2023-12-28T08:52:07;10.80;99.90
54178;DHT22;40085;53.004;6.770;2023-12-28T08:54:32;10.80;99.90
54178;DHT22;40085;53.004;6.770;2023-12-28T08:56:58;10.80;99.90
54178;DHT22;40085;53.004;6.770;2023-12-28T08:59:24;10.80;99.90
54178;DHT22;40085;53.004;6.770;2023-12-28T09:01:53;10.80;99.90
54178;DHT22;40085;53.004;6.770;2023-12-28T09:04:19;10.90;99.90
54178;DHT22;40085;53.004;6.770;2023-12-28T09:06:44;10.90;99.90
54178;DHT22;40085;53.004;6.770;2023-12-28T09:09:10;11.00;99.90
54178;DHT22;40085;53.004;6.770;2023-12-28T09:11:35;10.90;99.90
54178;DHT22;40085;53.004;6.770;2023-12-28T09:14:01;10.90;99.90
54178;DHT22;40085;53.004;6.770;2023-12-28T09:16:27;10.90;99.90
54178;DHT22;40085;53.004;6.770;2023-12-28T09:18:53;10.90;99.90
54178;DHT22;40085;53.004;6.770;2023-12-28T09:21:19;11.00;99.90
54178;DHT22;40085;53.004;6.770;2023-12-28T09:23:46;11.00;99.90
54178;DHT22;40085;53.004;6.770;2023-12-28T09:26:11;11.00;99.90
54178;DHT22;40085;53.004;6.770;2023-12-28T09:28:37;11.00;99.90
54178;DHT22;40085;53.004;6.770;2023-12-28T09:31:03;11.00;99.90
54178;DHT22;40085;53.004;6.770;2023-12-28T09:33:29;10.90;99.90
54178;DHT22;40085;53.004;6.770;2023-12-28T09:35:55;10.90;99.90
54178;DHT22;40085;53.004;6.770;2023-12-28T09:38:21;10.80;99.90
54178;DHT22;40085;53.004;6.770;2023-12-28T19:09:41;10.80;99.90
54178;DHT22;40085;53.004;6.770;2023-12-28T19:12:07;10.80;99.90
54178;DHT22;40085;53.004;6.770;2023-12-28T19:14:34;10.80;99.90
54178;DHT22;40085;53.004;6.770;2023-12-28T19:16:59;10.70;99.90
54178;DHT22;40085;53.004;6.770;2023-12-28T19:19:26;10.80;99.90
54178;DHT22;40085;53.004;6.770;2023-12-28T19:21:56;10.80;99.90
54178;DHT22;40085;53.004;6.770;2023-12-28T19:24:22;10.80;99.90
54178;DHT22;40085;53.004;6.770;2023-12-28T19:26:48;10.80;99.90
54178;DHT22;40085;53.004;6.770;2023-12-28T19:29:13;10.70;99.90
54178;DHT22;40085;53.004;6.770;2023-12-28T19:31:39;10.70;99.90
54178;DHT22;40085;53.004;6.770;2023-12-28T19:34:04;10.70;99.90
54178;DHT22;40085;53.004;6.770;2023-12-28T19:36:32;10.70;99.90
54178;DHT22;40085;53.004;6.770;2023-12-28T19:38:58;10.70;99.90
54178;DHT22;40085;53.004;6.770;2023-12-28T19:41:23;10.70;99.90
54178;DHT22;40085;53.004;6.770;2023-12-28T19:43:49;10.70;99.90
54178;DHT22;40085;53.004;6.770;2023-12-28T19:46:17;10.70;99.90
54178;DHT22;40085;53.004;6.770;2023-12-28T19:48:43;10.80;99.90
54178;DHT22;40085;53.004;6.770;2023-12-28T19:51:09;10.80;99.90
54178;DHT22;40085;53.004;6.770;2023-12-28T19:53:35;10.70;99.90
54178;DHT22;40085;53.004;6.770;2023-12-28T19:56:01;10.70;99.90
54178;DHT22;40085;53.004;6.770;2023-12-28T19:58:27;10.70;99.90
54178;DHT22;40085;53.004;6.770;2023-12-28T20:00:53;10.70;99.90
54178;DHT22;40085;53.004;6.770;2023-12-28T20:03:19;10.70;99.90
54178;DHT22;40085;53.004;6.770;2023-12-28T20:05:45;10.80;99.90
54178;DHT22;40085;53.004;6.770;2023-12-28T20:08:10;10.70;99.90
54178;DHT22;40085;53.004;6.770;2023-12-28T20:10:36;10.70;99.90
54178;DHT22;40085;53.004;6.770;2023-12-28T20:13:02;10.70;99.90
54178;DHT22;40085;53.004;6.770;2023-12-28T20:15:27;10.60;99.90
54178;DHT22;40085;53.004;6.770;2023-12-28T20:17:53;10.50;99.90
54178;DHT22;40085;53.004;6.770;2023-12-28T20:20:19;10.50;99.90
54178;DHT22;40085;53.004;6.770;2023-12-28T20:22:46;10.40;99.90
54178;DHT22;40085;53.004;6.770;2023-12-28T20:25:13;10.40;99.90
54178;DHT22;40085;53.004;6.770;2023-12-28T20:27:39;10.30;99.90
54178;DHT22;40085;53.004;6.770;2023-12-28T20:30:08;10.40;99.90
54178;DHT22;40085;53.004;6.770;2023-12-28T20:32:37;10.40;99.90
54178;DHT22;40085;53.004;6.770;2023-12-28T20:35:03;10.40;99.90
54178;DHT22;40085;53.004;6.770;2023-12-28T20:37:29;10.30;99.90
54178;DHT22;40085;53.004;6.770;2023-12-28T20:39:55;10.30;99.90
54178;DHT22;40085;53.004;6.770;2023-12-28T20:42:20;10.20;99.90
54178;DHT22;40085;53.004;6.770;2023-12-28T20:44:47;10.20;99.90
54178;DHT22;40085;53.004;6.770;2023-12-28T20:47:12;10.20;99.90
54178;DHT22;40085;53.004;6.770;2023-12-28T20:49:38;10.20;99.90
54178;DHT22;40085;53.004;6.770;2023-12-28T20:52:04;10.20;99.90
54178;DHT22;40085;53.004;6.770;2023-12-28T20:54:30;10.20;99.90
54178;DHT22;40085;53.004;6.770;2023-12-28T20:56:55;10.20;99.90
54178;DHT22;40085;53.004;6.770;2023-12-28T20:59:21;10.20;99.90
54178;DHT22;40085;53.004;6.770;2023-12-28T21:01:47;10.20;99.90
54178;DHT22;40085;53.004;6.770;2023-12-28T21:04:12;10.30;99.90
54178;DHT22;40085;53.004;6.770;2023-12-28T21:06:38;10.30;99.90
54178;DHT22;40085;53.004;6.770;2023-12-28T21:09:03;10.40;99.90
54178;DHT22;40085;53.004;6.770;2023-12-28T21:11:29;10.40;99.90
54178;DHT22;40085;53.004;6.770;2023-12-28T21:13:55;10.30;99.90
54178;DHT22;40085;53.004;6.770;2023-12-28T21:16:28;10.30;99.90
54178;DHT22;40085;53.004;6.770;2023-12-28T21:18:54;10.20;99.90
54178;DHT22;40085;53.004;6.770;2023-12-28T21:21:20;10.20;99.90
54178;DHT22;40085;53.004;6.770;2023-12-28T21:23:46;10.30;99.90
54178;DHT22;40085;53.004;6.770;2023-12-28T21:26:13;10.30;99.90
54178;DHT22;40085;53.004;6.770;2023-12-28T21:28:39;10.20;99.90
54178;DHT22;40085;53.004;6.770;2023-12-28T21:31:05;10.30;99.90
54178;DHT22;40085;53.004;6.770;2023-12-28T21:33:31;10.20;99.90
54178;DHT22;40085;53.004;6.770;2023-12-28T21:35:56;10.30;99.90
54178;DHT22;40085;53.004;6.770;2023-12-28T21:38:22;10.40;99.90
54178;DHT22;40085;53.004;6.770;2023-12-28T21:40:48;10.40;99.90
54178;DHT22;40085;53.004;6.770;2023-12-28T21:43:14;10.50;99.90
54178;DHT22;40085;53.004;6.770;2023-12-28T21:45:40;10.40;99.90
54178;DHT22;40085;53.004;6.770;2023-12-28T21:48:06;10.30;99.90
54178;DHT22;40085;53.004;6.770;2023-12-28T21:50:32;10.10;99.90
54178;DHT22;40085;53.004;6.770;2023-12-28T21:52:58;9.90;99.90
54178;DHT22;40085;53.004;6.770;2023-12-28T21:55:23;9.80;99.90
54178;DHT22;40085;53.004;6.770;2023-12-28T21:57:49;9.70;99.90
54178;DHT22;40085;53.004;6.770;2023-12-28T22:00:15;9.70;99.90
54178;DHT22;40085;53.004;6.770;2023-12-28T22:02:41;9.60;99.90
54178;DHT22;40085;53.004;6.770;2023-12-28T22:05:06;9.60;99.90
54178;DHT22;40085;53.004;6.770;2023-12-28T22:07:32;9.50;99.90
54178;DHT22;40085;53.004;6.770;2023-12-28T22:09:58;9.50;99.90
54178;DHT22;40085;53.004;6.770;2023-12-28T22:12:23;9.50;99.90
54178;DHT22;40085;53.004;6.770;2023-12-28T22:14:49;9.50;99.90
54178;DHT22;40085;53.004;6.770;2023-12-28T22:17:15;9.50;99.90
54178;DHT22;40085;53.004;6.770;2023-12-28T22:19:42;9.40;99.90
54178;DHT22;40085;53.004;6.770;2023-12-28T22:22:09;9.40;99.90
54178;DHT22;40085;53.004;6.770;2023-12-28T22:24:34;9.40;99.90
54178;DHT22;40085;53.004;6.770;2023-12-28T22:27:00;9.40;99.90
54178;DHT22;40085;53.004;6.770;2023-12-28T22:29:26;9.40;99.90
54178;DHT22;40085;53.004;6.770;2023-12-28T22:31:53;9.60;99.90
54178;DHT22;40085;53.004;6.770;2023-12-28T22:34:19;9.50;99.90
54178;DHT22;40085;53.004;6.770;2023-12-28T22:36:46;9.50;99.90
54178;DHT22;40085;53.004;6.770;2023-12-28T22:39:12;9.40;99.90
54178;DHT22;40085;53.004;6.770;2023-12-28T22:41:38;9.40;99.90
54178;DHT22;40085;53.004;6.770;2023-12-28T22:44:03;9.40;99.90
54178;DHT22;40085;53.004;6.770;2023-12-28T22:46:29;9.40;99.90
54178;DHT22;40085;53.004;6.770;2023-12-28T22:48:55;9.40;99.90
54178;DHT22;40085;53.004;6.770;2023-12-28T22:51:20;9.40;99.90
54178;DHT22;40085;53.004;6.770;2023-12-28T22:53:46;9.40;99.90
54178;DHT22;40085;53.004;6.770;2023-12-28T22:56:11;9.30;99.90
54178;DHT22;40085;53.004;6.770;2023-12-28T22:58:37;9.20;99.90
54178;DHT22;40085;53.004;6.770;2023-12-28T23:01:03;9.20;99.90
54178;DHT22;40085;53.004;6.770;2023-12-28T23:03:29;9.20;99.90
54178;DHT22;40085;53.004;6.770;2023-12-28T23:05:55;9.20;99.90
54178;DHT22;40085;53.004;6.770;2023-12-28T23:08:20;9.20;99.90
54178;DHT22;40085;53.004;6.770;2023-12-28T23:10:46;9.20;99.90
54178;DHT22;40085;53.004;6.770;2023-12-28T23:13:12;9.20;99.90
54178;DHT22;40085;53.004;6.770;2023-12-28T23:15:38;9.30;99.90
54178;DHT22;40085;53.004;6.770;2023-12-28T23:18:04;9.30;99.90
54178;DHT22;40085;53.004;6.770;2023-12-28T23:20:30;9.30;99.90
54178;DHT22;40085;53.004;6.770;2023-12-28T23:22:55;9.80;99.90
54178;DHT22;40085;53.004;6.770;2023-12-28T23:25:21;9.40;99.90
54178;DHT22;40085;53.004;6.770;2023-12-28T23:27:47;9.40;99.90
54178;DHT22;40085;53.004;6.770;2023-12-28T23:30:16;9.50;99.90
54178;DHT22;40085;53.004;6.770;2023-12-28T23:32:42;9.50;99.90
54178;DHT22;40085;53.004;6.770;2023-12-28T23:35:09;9.50;99.90
54178;DHT22;40085;53.004;6.770;2023-12-28T23:37:36;9.60;99.90
54178;DHT22;40085;53.004;6.770;2023-12-28T23:40:02;9.60;99.90
54178;DHT22;40085;53.004;6.770;2023-12-28T23:42:28;9.50;99.90
54178;DHT22;40085;53.004;6.770;2023-12-28T23:44:54;9.60;99.90
54178;DHT22;40085;53.004;6.770;2023-12-28T23:47:19;9.50;99.90
54178;DHT22;40085;53.004;6.770;2023-12-28T23:49:45;9.50;99.90
54178;DHT22;40085;53.004;6.770;2023-12-28T23:52:11;9.60;99.90
54178;DHT22;40085;53.004;6.770;2023-12-28T23:54:36;9.60;99.90
54178;DHT22;40085;53.004;6.770;2023-12-28T23:57:04;9.60;99.90
54178;DHT22;40085;53.004;6.770;2023-12-28T23:59:30;9.70;99.90
